sensor_id;sensor_type;location;lat;lon;timestamp;pressure;altitude;pressure_sealevel;temperature;humidity
13027;BME280;6580;42.680;23.324;2022-11-21T00:00:38;94009.19;;;12.81;100.00
13027;BME280;6580;42.680;23.324;2022-11-21T00:03:05;94002.81;;;12.82;100.00
13027;BME280;6580;42.680;23.324;2022-11-21T00:05:32;93981.47;;;12.88;100.00
13027;BME280;6580;42.680;23.324;2022-11-21T00:07:59;93986.13;;;12.67;100.00
13027;BME280;6580;42.680;23.324;2022-11-21T00:10:27;93987.91;;;12.47;100.00
13027;BME280;6580;42.680;23.324;2022-11-21T00:12:56;93942.47;;;12.34;100.00
13027;BME280;6580;42.680;23.324;2022-11-21T00:15:25;93960.84;;;12.63;100.00
13027;BME280;6580;42.680;23.324;2022-11-21T00:17:52;93946.59;;;12.43;100.00
13027;BME280;6580;42.680;23.324;2022-11-21T00:20:21;93951.16;;;12.49;100.00
13027;BME280;6580;42.680;23.324;2022-11-21T00:22:48;93965.75;;;12.59;100.00
13027;BME280;6580;42.680;23.324;2022-11-21T00:25:15;93952.28;;;12.80;100.00
13027;BME280;6580;42.680;23.324;2022-11-21T00:27:43;93951.44;;;12.86;100.00
13027;BME280;6580;42.680;23.324;2022-11-21T00:30:12;93920.63;;;12.84;100.00
13027;BME280;6580;42.680;23.324;2022-11-21T00:32:39;93913.22;;;12.79;100.00
13027;BME280;6580;42.680;23.324;2022-11-21T00:35:06;93909.84;;;12.51;100.00
13027;BME280;6580;42.680;23.324;2022-11-21T00:37:33;93947.72;;;12.68;100.00
13027;BME280;6580;42.680;23.324;2022-11-21T00:40:02;93932.53;;;12.81;100.00
13027;BME280;6580;42.680;23.324;2022-11-21T00:42:28;93907.25;;;12.71;100.00
13027;BME280;6580;42.680;23.324;2022-11-21T00:44:56;93918.56;;;12.86;100.00
13027;BME280;6580;42.680;23.324;2022-11-21T00:47:24;93928.41;;;12.85;100.00
13027;BME280;6580;42.680;23.324;2022-11-21T00:49:51;93937.53;;;12.91;100.00
13027;BME280;6580;42.680;23.324;2022-11-21T00:52:17;93922.72;;;12.95;100.00
13027;BME280;6580;42.680;23.324;2022-11-21T00:54:44;93918.16;;;12.89;100.00
13027;BME280;6580;42.680;23.324;2022-11-21T00:57:11;93904.81;;;12.89;100.00
13027;BME280;6580;42.680;23.324;2022-11-21T00:59:38;93901.56;;;12.93;100.00
13027;BME280;6580;42.680;23.324;2022-11-21T01:02:05;93914.06;;;12.93;100.00
13027;BME280;6580;42.680;23.324;2022-11-21T01:04:34;93904.19;;;12.87;100.00
13027;BME280;6580;42.680;23.324;2022-11-21T01:07:01;93912.00;;;12.88;100.00
13027;BME280;6580;42.680;23.324;2022-11-21T01:09:28;93910.09;;;12.69;100.00
13027;BME280;6580;42.680;23.324;2022-11-21T01:11:55;93899.25;;;12.84;100.00
13027;BME280;6580;42.680;23.324;2022-11-21T01:14:22;93901.06;;;12.77;100.00
13027;BME280;6580;42.680;23.324;2022-11-21T01:16:49;93918.56;;;12.79;100.00
13027;BME280;6580;42.680;23.324;2022-11-21T01:19:16;93929.00;;;12.61;100.00
13027;BME280;6580;42.680;23.324;2022-11-21T01:21:45;93928.78;;;12.63;100.00
13027;BME280;6580;42.680;23.324;2022-11-21T01:24:12;93916.06;;;12.78;100.00
13027;BME280;6580;42.680;23.324;2022-11-21T01:26:38;93904.19;;;12.80;100.00
13027;BME280;6580;42.680;23.324;2022-11-21T01:29:05;93906.22;;;12.85;100.00
13027;BME280;6580;42.680;23.324;2022-11-21T01:31:33;93904.97;;;12.68;100.00
13027;BME280;6580;42.680;23.324;2022-11-21T01:34:00;93911.56;;;12.85;100.00
13027;BME280;6580;42.680;23.324;2022-11-21T01:36:29;93907.44;;;12.76;100.00
13027;BME280;6580;42.680;23.324;2022-11-21T01:39:00;93898.41;;;12.77;100.00
13027;BME280;6580;42.680;23.324;2022-11-21T01:41:30;93892.88;;;12.78;100.00
13027;BME280;6580;42.680;23.324;2022-11-21T01:43:58;93898.84;;;12.74;100.00
13027;BME280;6580;42.680;23.324;2022-11-21T01:46:25;93880.38;;;12.92;100.00
13027;BME280;6580;42.680;23.324;2022-11-21T01:48:55;93891.00;;;12.79;100.00
13027;BME280;6580;42.680;23.324;2022-11-21T01:51:25;93888.56;;;12.77;100.00
13027;BME280;6580;42.680;23.324;2022-11-21T01:54:09;93880.31;;;12.72;100.00
13027;BME280;6580;42.680;23.324;2022-11-21T01:56:40;93883.78;;;12.60;100.00
13027;BME280;6580;42.680;23.324;2022-11-21T01:59:11;93886.50;;;12.73;100.00
13027;BME280;6580;42.680;23.324;2022-11-21T02:01:41;93863.03;;;12.62;100.00
13027;BME280;6580;42.680;23.324;2022-11-21T02:04:08;93881.13;;;12.60;100.00
13027;BME280;6580;42.680;23.324;2022-11-21T02:06:35;93896.94;;;12.55;100.00
13027;BME280;6580;42.680;23.324;2022-11-21T02:09:05;93899.63;;;12.55;100.00
13027;BME280;6580;42.680;23.324;2022-11-21T02:11:37;93903.69;;;12.51;100.00
13027;BME280;6580;42.680;23.324;2022-11-21T02:14:05;93913.28;;;12.39;100.00
13027;BME280;6580;42.680;23.324;2022-11-21T02:16:32;93896.72;;;12.50;100.00
13027;BME280;6580;42.680;23.324;2022-11-21T02:19:00;93892.19;;;12.57;100.00
13027;BME280;6580;42.680;23.324;2022-11-21T02:21:35;93890.59;;;12.69;100.00
13027;BME280;6580;42.680;23.324;2022-11-21T02:24:13;93892.44;;;12.75;100.00
13027;BME280;6580;42.680;23.324;2022-11-21T02:26:45;93867.53;;;12.48;100.00
13027;BME280;6580;42.680;23.324;2022-11-21T02:29:16;93903.94;;;12.69;100.00
13027;BME280;6580;42.680;23.324;2022-11-21T02:31:43;93888.34;;;12.79;100.00
13027;BME280;6580;42.680;23.324;2022-11-21T02:34:10;93881.34;;;12.78;100.00
13027;BME280;6580;42.680;23.324;2022-11-21T02:36:41;93908.28;;;12.83;100.00
13027;BME280;6580;42.680;23.324;2022-11-21T02:39:13;93905.22;;;12.79;100.00
13027;BME280;6580;42.680;23.324;2022-11-21T02:41:49;93885.19;;;12.56;100.00
13027;BME280;6580;42.680;23.324;2022-11-21T02:44:22;93862.22;;;12.61;100.00
13027;BME280;6580;42.680;23.324;2022-11-21T02:46:51;93861.22;;;12.69;100.00
13027;BME280;6580;42.680;23.324;2022-11-21T02:49:26;93835.53;;;12.55;100.00
13027;BME280;6580;42.680;23.324;2022-11-21T02:51:55;93868.78;;;12.65;100.00
13027;BME280;6580;42.680;23.324;2022-11-21T02:54:21;93849.50;;;12.70;100.00
13027;BME280;6580;42.680;23.324;2022-11-21T02:56:50;93839.69;;;12.90;100.00
13027;BME280;6580;42.680;23.324;2022-11-21T02:59:17;93841.09;;;12.86;100.00
13027;BME280;6580;42.680;23.324;2022-11-21T03:01:44;93858.16;;;12.85;100.00
13027;BME280;6580;42.680;23.324;2022-11-21T03:04:12;93833.25;;;12.84;100.00
13027;BME280;6580;42.680;23.324;2022-11-21T03:06:40;93813.53;;;12.85;100.00
13027;BME280;6580;42.680;23.324;2022-11-21T03:09:08;93818.31;;;12.90;100.00
13027;BME280;6580;42.680;23.324;2022-11-21T03:11:37;93831.00;;;12.75;100.00
13027;BME280;6580;42.680;23.324;2022-11-21T03:14:05;93827.13;;;12.77;100.00
13027;BME280;6580;42.680;23.324;2022-11-21T03:16:32;93818.50;;;12.95;100.00
13027;BME280;6580;42.680;23.324;2022-11-21T03:18:59;93823.63;;;13.09;100.00
13027;BME280;6580;42.680;23.324;2022-11-21T03:21:26;93832.88;;;13.19;100.00
13027;BME280;6580;42.680;23.324;2022-11-21T03:23:53;93824.06;;;13.19;100.00
13027;BME280;6580;42.680;23.324;2022-11-21T03:26:21;93835.94;;;13.42;100.00
13027;BME280;6580;42.680;23.324;2022-11-21T03:28:47;93834.91;;;13.30;100.00
13027;BME280;6580;42.680;23.324;2022-11-21T03:31:16;93831.25;;;13.18;100.00
13027;BME280;6580;42.680;23.324;2022-11-21T03:33:44;93843.38;;;13.27;100.00
13027;BME280;6580;42.680;23.324;2022-11-21T03:36:11;93838.03;;;13.27;100.00
13027;BME280;6580;42.680;23.324;2022-11-21T03:38:38;93821.53;;;13.30;100.00
13027;BME280;6580;42.680;23.324;2022-11-21T03:41:05;93812.91;;;13.28;100.00
13027;BME280;6580;42.680;23.324;2022-11-21T03:43:55;93844.81;;;13.23;100.00
13027;BME280;6580;42.680;23.324;2022-11-21T03:46:25;93821.38;;;13.13;100.00
13027;BME280;6580;42.680;23.324;2022-11-21T03:48:51;93824.66;;;13.27;100.00
13027;BME280;6580;42.680;23.324;2022-11-21T03:51:19;93816.81;;;13.32;100.00
13027;BME280;6580;42.680;23.324;2022-11-21T03:53:46;93813.53;;;13.24;100.00
13027;BME280;6580;42.680;23.324;2022-11-21T03:56:15;93802.00;;;13.36;100.00
13027;BME280;6580;42.680;23.324;2022-11-21T03:58:42;93814.56;;;13.42;100.00
13027;BME280;6580;42.680;23.324;2022-11-21T04:01:10;93824.03;;;13.13;100.00
13027;BME280;6580;42.680;23.324;2022-11-21T04:03:41;93808.63;;;13.08;100.00
13027;BME280;6580;42.680;23.324;2022-11-21T04:06:09;93818.88;;;13.24;100.00
13027;BME280;6580;42.680;23.324;2022-11-21T04:08:36;93795.66;;;13.24;100.00
13027;BME280;6580;42.680;23.324;2022-11-21T04:11:04;93796.28;;;13.26;100.00
13027;BME280;6580;42.680;23.324;2022-11-21T04:13:31;93803.03;;;13.35;100.00
13027;BME280;6580;42.680;23.324;2022-11-21T04:15:57;93794.81;;;13.37;100.00
13027;BME280;6580;42.680;23.324;2022-11-21T04:18:25;93799.13;;;13.31;100.00
13027;BME280;6580;42.680;23.324;2022-11-21T04:20:56;93782.25;;;13.37;100.00
13027;BME280;6580;42.680;23.324;2022-11-21T04:23:25;93788.22;;;13.39;100.00
13027;BME280;6580;42.680;23.324;2022-11-21T04:25:53;93787.84;;;13.17;100.00
13027;BME280;6580;42.680;23.324;2022-11-21T04:28:20;93800.19;;;13.18;100.00
13027;BME280;6580;42.680;23.324;2022-11-21T04:30:48;93798.94;;;13.33;100.00
13027;BME280;6580;42.680;23.324;2022-11-21T04:33:16;93788.53;;;13.69;100.00
13027;BME280;6580;42.680;23.324;2022-11-21T04:35:46;93804.19;;;13.65;100.00
13027;BME280;6580;42.680;23.324;2022-11-21T04:38:15;93800.69;;;13.65;100.00
13027;BME280;6580;42.680;23.324;2022-11-21T04:40:42;93809.53;;;13.72;100.00
13027;BME280;6580;42.680;23.324;2022-11-21T04:43:09;93805.81;;;13.79;100.00
13027;BME280;6580;42.680;23.324;2022-11-21T04:45:38;93796.06;;;13.91;100.00
13027;BME280;6580;42.680;23.324;2022-11-21T04:48:05;93803.91;;;13.86;100.00
13027;BME280;6580;42.680;23.324;2022-11-21T04:50:32;93810.28;;;13.85;100.00
13027;BME280;6580;42.680;23.324;2022-11-21T04:52:59;93806.44;;;13.68;100.00
13027;BME280;6580;42.680;23.324;2022-11-21T04:55:29;93830.50;;;13.75;100.00
13027;BME280;6580;42.680;23.324;2022-11-21T04:57:59;93836.56;;;13.44;100.00
13027;BME280;6580;42.680;23.324;2022-11-21T05:00:27;93833.28;;;13.23;100.00
13027;BME280;6580;42.680;23.324;2022-11-21T05:03:01;93836.59;;;13.18;100.00
13027;BME280;6580;42.680;23.324;2022-11-21T05:05:30;93842.13;;;13.11;100.00
13027;BME280;6580;42.680;23.324;2022-11-21T05:07:57;93838.84;;;13.02;100.00
13027;BME280;6580;42.680;23.324;2022-11-21T05:10:24;93853.84;;;13.22;100.00
13027;BME280;6580;42.680;23.324;2022-11-21T05:12:59;93855.69;;;13.16;100.00
13027;BME280;6580;42.680;23.324;2022-11-21T05:15:43;93860.44;;;13.07;100.00
13027;BME280;6580;42.680;23.324;2022-11-21T05:18:10;93872.75;;;12.89;100.00
13027;BME280;6580;42.680;23.324;2022-11-21T05:20:37;93833.81;;;12.41;100.00
13027;BME280;6580;42.680;23.324;2022-11-21T05:23:04;93873.88;;;12.41;100.00
13027;BME280;6580;42.680;23.324;2022-11-21T05:25:31;93888.22;;;12.27;100.00
13027;BME280;6580;42.680;23.324;2022-11-21T05:28:00;93888.00;;;12.28;100.00
13027;BME280;6580;42.680;23.324;2022-11-21T05:30:28;93865.78;;;12.09;100.00
13027;BME280;6580;42.680;23.324;2022-11-21T05:32:57;93888.81;;;12.16;100.00
13027;BME280;6580;42.680;23.324;2022-11-21T05:35:25;93892.94;;;12.25;100.00
13027;BME280;6580;42.680;23.324;2022-11-21T05:37:55;93898.78;;;12.01;100.00
13027;BME280;6580;42.680;23.324;2022-11-21T05:40:22;93897.59;;;12.10;100.00
13027;BME280;6580;42.680;23.324;2022-11-21T05:42:49;93890.63;;;12.15;100.00
13027;BME280;6580;42.680;23.324;2022-11-21T05:45:35;93911.31;;;12.01;100.00
13027;BME280;6580;42.680;23.324;2022-11-21T05:48:02;93903.50;;;11.99;100.00
13027;BME280;6580;42.680;23.324;2022-11-21T05:50:32;93916.19;;;11.91;100.00
13027;BME280;6580;42.680;23.324;2022-11-21T05:53:01;93917.75;;;11.51;100.00
13027;BME280;6580;42.680;23.324;2022-11-21T05:55:28;93917.25;;;11.35;100.00
13027;BME280;6580;42.680;23.324;2022-11-21T05:57:57;93946.00;;;11.18;100.00
13027;BME280;6580;42.680;23.324;2022-11-21T06:00:25;93941.91;;;11.16;100.00
13027;BME280;6580;42.680;23.324;2022-11-21T06:02:58;93969.94;;;10.91;100.00
13027;BME280;6580;42.680;23.324;2022-11-21T06:05:42;93950.84;;;11.09;100.00
13027;BME280;6580;42.680;23.324;2022-11-21T06:08:09;93964.56;;;10.85;100.00
13027;BME280;6580;42.680;23.324;2022-11-21T06:10:36;93979.09;;;10.47;100.00
13027;BME280;6580;42.680;23.324;2022-11-21T06:13:03;93968.50;;;10.89;100.00
13027;BME280;6580;42.680;23.324;2022-11-21T06:15:47;93987.94;;;10.33;100.00
13027;BME280;6580;42.680;23.324;2022-11-21T06:18:15;93943.66;;;10.11;100.00
13027;BME280;6580;42.680;23.324;2022-11-21T06:20:42;93985.16;;;10.41;100.00
13027;BME280;6580;42.680;23.324;2022-11-21T06:23:09;94004.53;;;10.70;100.00
13027;BME280;6580;42.680;23.324;2022-11-21T06:25:37;93998.38;;;10.49;100.00
13027;BME280;6580;42.680;23.324;2022-11-21T06:28:04;93999.22;;;10.35;100.00
13027;BME280;6580;42.680;23.324;2022-11-21T06:30:31;94019.09;;;10.53;100.00
13027;BME280;6580;42.680;23.324;2022-11-21T06:32:58;94004.19;;;9.80;100.00
13027;BME280;6580;42.680;23.324;2022-11-21T06:35:27;94023.50;;;9.60;100.00
13027;BME280;6580;42.680;23.324;2022-11-21T06:37:55;94041.50;;;9.87;100.00
13027;BME280;6580;42.680;23.324;2022-11-21T06:40:22;94044.25;;;9.93;100.00
13027;BME280;6580;42.680;23.324;2022-11-21T06:42:49;94034.03;;;10.05;100.00
13027;BME280;6580;42.680;23.324;2022-11-21T06:45:15;94047.03;;;10.00;100.00
13027;BME280;6580;42.680;23.324;2022-11-21T06:47:42;94033.97;;;9.61;100.00
13027;BME280;6580;42.680;23.324;2022-11-21T06:50:11;94062.84;;;9.64;100.00
13027;BME280;6580;42.680;23.324;2022-11-21T06:52:39;94081.34;;;9.72;100.00
13027;BME280;6580;42.680;23.324;2022-11-21T06:55:07;94101.34;;;9.46;100.00
13027;BME280;6580;42.680;23.324;2022-11-21T06:57:34;94109.13;;;9.47;100.00
13027;BME280;6580;42.680;23.324;2022-11-21T07:00:02;94117.19;;;9.39;100.00
13027;BME280;6580;42.680;23.324;2022-11-21T07:02:30;94123.84;;;9.13;100.00
13027;BME280;6580;42.680;23.324;2022-11-21T07:04:58;94131.88;;;9.05;100.00
13027;BME280;6580;42.680;23.324;2022-11-21T07:07:25;94146.44;;;8.79;100.00
13027;BME280;6580;42.680;23.324;2022-11-21T07:09:55;94157.84;;;8.87;100.00
13027;BME280;6580;42.680;23.324;2022-11-21T07:12:22;94155.34;;;8.55;100.00
13027;BME280;6580;42.680;23.324;2022-11-21T07:15:09;94159.38;;;8.43;100.00
13027;BME280;6580;42.680;23.324;2022-11-21T07:17:36;94159.94;;;8.15;100.00
13027;BME280;6580;42.680;23.324;2022-11-21T07:20:05;94191.41;;;8.34;100.00
13027;BME280;6580;42.680;23.324;2022-11-21T07:22:32;94190.91;;;8.30;100.00
13027;BME280;6580;42.680;23.324;2022-11-21T07:25:01;94190.94;;;7.99;100.00
13027;BME280;6580;42.680;23.324;2022-11-21T07:27:29;94218.94;;;8.09;100.00
13027;BME280;6580;42.680;23.324;2022-11-21T07:29:56;94217.59;;;8.05;100.00
13027;BME280;6580;42.680;23.324;2022-11-21T07:32:23;94220.09;;;8.06;100.00
13027;BME280;6580;42.680;23.324;2022-11-21T07:34:50;94225.25;;;8.00;100.00
13027;BME280;6580;42.680;23.324;2022-11-21T07:37:17;94241.47;;;8.29;100.00
13027;BME280;6580;42.680;23.324;2022-11-21T07:39:44;94248.91;;;8.33;100.00
13027;BME280;6580;42.680;23.324;2022-11-21T07:42:12;94253.91;;;8.36;100.00
13027;BME280;6580;42.680;23.324;2022-11-21T07:44:39;94250.44;;;8.28;100.00
13027;BME280;6580;42.680;23.324;2022-11-21T07:47:06;94255.72;;;8.36;100.00
13027;BME280;6580;42.680;23.324;2022-11-21T07:49:33;94250.44;;;8.28;100.00
13027;BME280;6580;42.680;23.324;2022-11-21T07:52:00;94264.50;;;8.44;100.00
13027;BME280;6580;42.680;23.324;2022-11-21T07:54:27;94269.34;;;8.33;100.00
13027;BME280;6580;42.680;23.324;2022-11-21T07:56:54;94263.69;;;8.36;100.00
13027;BME280;6580;42.680;23.324;2022-11-21T07:59:24;94260.78;;;8.69;100.00
13027;BME280;6580;42.680;23.324;2022-11-21T08:01:51;94275.47;;;8.96;100.00
13027;BME280;6580;42.680;23.324;2022-11-21T08:04:17;94283.75;;;8.93;100.00
13027;BME280;6580;42.680;23.324;2022-11-21T08:06:44;94293.44;;;8.86;100.00
13027;BME280;6580;42.680;23.324;2022-11-21T08:09:13;94283.53;;;8.56;100.00
13027;BME280;6580;42.680;23.324;2022-11-21T08:11:39;94282.75;;;8.31;100.00
13027;BME280;6580;42.680;23.324;2022-11-21T08:14:07;94305.09;;;8.13;100.00
13027;BME280;6580;42.680;23.324;2022-11-21T08:16:37;94324.03;;;8.18;100.00
13027;BME280;6580;42.680;23.324;2022-11-21T08:19:04;94320.72;;;8.24;100.00
13027;BME280;6580;42.680;23.324;2022-11-21T08:21:31;94325.00;;;8.57;100.00
13027;BME280;6580;42.680;23.324;2022-11-21T08:23:58;94318.38;;;8.53;100.00
13027;BME280;6580;42.680;23.324;2022-11-21T08:26:25;94323.03;;;8.35;100.00
13027;BME280;6580;42.680;23.324;2022-11-21T08:28:52;94329.31;;;8.50;100.00
13027;BME280;6580;42.680;23.324;2022-11-21T08:31:19;94317.88;;;8.49;100.00
13027;BME280;6580;42.680;23.324;2022-11-21T08:33:47;94324.63;;;8.76;100.00
13027;BME280;6580;42.680;23.324;2022-11-21T08:36:14;94316.34;;;8.79;100.00
13027;BME280;6580;42.680;23.324;2022-11-21T08:38:42;94319.50;;;8.66;100.00
13027;BME280;6580;42.680;23.324;2022-11-21T08:41:11;94322.44;;;8.87;100.00
13027;BME280;6580;42.680;23.324;2022-11-21T08:43:55;94317.66;;;8.75;100.00
13027;BME280;6580;42.680;23.324;2022-11-21T08:46:22;94300.28;;;8.56;100.00
13027;BME280;6580;42.680;23.324;2022-11-21T08:48:53;94312.59;;;8.17;100.00
13027;BME280;6580;42.680;23.324;2022-11-21T08:51:22;94325.47;;;7.97;100.00
13027;BME280;6580;42.680;23.324;2022-11-21T08:53:48;94323.19;;;8.09;100.00
13027;BME280;6580;42.680;23.324;2022-11-21T08:56:16;94330.63;;;8.06;100.00
13027;BME280;6580;42.680;23.324;2022-11-21T08:58:43;94332.09;;;8.01;100.00
13027;BME280;6580;42.680;23.324;2022-11-21T09:01:10;94334.56;;;8.02;100.00
13027;BME280;6580;42.680;23.324;2022-11-21T09:03:37;94335.47;;;8.42;100.00
13027;BME280;6580;42.680;23.324;2022-11-21T09:06:08;94334.13;;;8.46;100.00
13027;BME280;6580;42.680;23.324;2022-11-21T09:08:34;94346.06;;;8.18;100.00
13027;BME280;6580;42.680;23.324;2022-11-21T09:11:03;94349.66;;;7.94;100.00
13027;BME280;6580;42.680;23.324;2022-11-21T09:13:30;94351.16;;;7.96;100.00
13027;BME280;6580;42.680;23.324;2022-11-21T09:15:57;94362.59;;;7.97;100.00
13027;BME280;6580;42.680;23.324;2022-11-21T09:18:41;94355.81;;;8.10;100.00
13027;BME280;6580;42.680;23.324;2022-11-21T09:21:13;94360.91;;;7.96;100.00
13027;BME280;6580;42.680;23.324;2022-11-21T09:23:39;94358.28;;;7.96;100.00
13027;BME280;6580;42.680;23.324;2022-11-21T09:26:12;94345.03;;;8.11;100.00
13027;BME280;6580;42.680;23.324;2022-11-21T09:28:40;94346.69;;;8.04;100.00
13027;BME280;6580;42.680;23.324;2022-11-21T09:31:06;94357.44;;;8.03;100.00
13027;BME280;6580;42.680;23.324;2022-11-21T09:33:36;94355.47;;;8.05;100.00
13027;BME280;6580;42.680;23.324;2022-11-21T09:36:04;94363.81;;;8.18;100.00
13027;BME280;6580;42.680;23.324;2022-11-21T09:38:32;94353.38;;;8.24;100.00
13027;BME280;6580;42.680;23.324;2022-11-21T09:41:08;94355.50;;;8.21;100.00
13027;BME280;6580;42.680;23.324;2022-11-21T09:44:05;94344.88;;;8.05;100.00
13027;BME280;6580;42.680;23.324;2022-11-21T09:46:44;94356.19;;;8.39;100.00
13027;BME280;6580;42.680;23.324;2022-11-21T09:49:13;94343.28;;;8.36;100.00
13027;BME280;6580;42.680;23.324;2022-11-21T09:51:43;94341.72;;;8.73;100.00
13027;BME280;6580;42.680;23.324;2022-11-21T09:54:16;94331.94;;;8.82;100.00
13027;BME280;6580;42.680;23.324;2022-11-21T09:56:46;94349.88;;;8.72;100.00
13027;BME280;6580;42.680;23.324;2022-11-21T09:59:26;94348.16;;;8.95;100.00
13027;BME280;6580;42.680;23.324;2022-11-21T10:01:55;94363.63;;;8.75;100.00
13027;BME280;6580;42.680;23.324;2022-11-21T10:04:22;94356.81;;;8.81;100.00
13027;BME280;6580;42.680;23.324;2022-11-21T10:06:54;94359.50;;;8.73;100.00
13027;BME280;6580;42.680;23.324;2022-11-21T10:09:37;94369.78;;;8.52;100.00
13027;BME280;6580;42.680;23.324;2022-11-21T10:12:17;94364.13;;;8.79;100.00
13027;BME280;6580;42.680;23.324;2022-11-21T10:15:13;94363.78;;;8.82;100.00
13027;BME280;6580;42.680;23.324;2022-11-21T10:17:51;94370.09;;;8.81;100.00
13027;BME280;6580;42.680;23.324;2022-11-21T10:20:39;94368.91;;;8.91;100.00
13027;BME280;6580;42.680;23.324;2022-11-21T10:23:31;94377.06;;;8.66;100.00
13027;BME280;6580;42.680;23.324;2022-11-21T10:26:13;94381.19;;;8.92;100.00
13027;BME280;6580;42.680;23.324;2022-11-21T10:28:45;94383.00;;;9.07;100.00
13027;BME280;6580;42.680;23.324;2022-11-21T10:31:15;94384.69;;;8.29;100.00
13027;BME280;6580;42.680;23.324;2022-11-21T10:33:43;94386.03;;;8.25;100.00
13027;BME280;6580;42.680;23.324;2022-11-21T10:36:15;94377.53;;;8.05;100.00
13027;BME280;6580;42.680;23.324;2022-11-21T10:38:46;94391.34;;;8.17;100.00
13027;BME280;6580;42.680;23.324;2022-11-21T10:41:20;94392.84;;;8.43;100.00
13027;BME280;6580;42.680;23.324;2022-11-21T10:43:53;94392.53;;;8.62;100.00
13027;BME280;6580;42.680;23.324;2022-11-21T10:46:53;94391.34;;;8.57;100.00
13027;BME280;6580;42.680;23.324;2022-11-21T10:49:20;94393.00;;;8.66;100.00
13027;BME280;6580;42.680;23.324;2022-11-21T10:51:50;94392.50;;;8.78;100.00
13027;BME280;6580;42.680;23.324;2022-11-21T10:54:18;94388.34;;;8.44;100.00
13027;BME280;6580;42.680;23.324;2022-11-21T10:57:06;94387.38;;;8.53;100.00
13027;BME280;6580;42.680;23.324;2022-11-21T10:59:37;94388.34;;;8.44;100.00
13027;BME280;6580;42.680;23.324;2022-11-21T11:02:22;94399.28;;;8.57;100.00
13027;BME280;6580;42.680;23.324;2022-11-21T11:05:17;94400.28;;;8.64;100.00
13027;BME280;6580;42.680;23.324;2022-11-21T11:07:58;94399.81;;;8.60;100.00
13027;BME280;6580;42.680;23.324;2022-11-21T11:10:27;94396.13;;;8.69;100.00
13027;BME280;6580;42.680;23.324;2022-11-21T11:12:55;94393.31;;;8.79;100.00
13027;BME280;6580;42.680;23.324;2022-11-21T11:15:52;94396.94;;;8.94;100.00
13027;BME280;6580;42.680;23.324;2022-11-21T11:18:21;94390.47;;;8.96;100.00
13027;BME280;6580;42.680;23.324;2022-11-21T11:20:51;94386.34;;;8.86;100.00
13027;BME280;6580;42.680;23.324;2022-11-21T11:23:26;94377.25;;;8.80;100.00
13027;BME280;6580;42.680;23.324;2022-11-21T11:25:55;94384.88;;;8.67;100.00
13027;BME280;6580;42.680;23.324;2022-11-21T11:28:24;94374.06;;;8.85;100.00
13027;BME280;6580;42.680;23.324;2022-11-21T11:30:53;94378.91;;;8.73;100.00
13027;BME280;6580;42.680;23.324;2022-11-21T11:33:28;94378.41;;;8.70;100.00
13027;BME280;6580;42.680;23.324;2022-11-21T11:36:04;94384.31;;;8.96;100.00
13027;BME280;6580;42.680;23.324;2022-11-21T11:38:35;94372.72;;;9.05;100.00
13027;BME280;6580;42.680;23.324;2022-11-21T11:41:11;94368.28;;;8.73;100.00
13027;BME280;6580;42.680;23.324;2022-11-21T11:43:49;94368.53;;;9.02;100.00
13027;BME280;6580;42.680;23.324;2022-11-21T11:46:41;94362.44;;;8.94;100.00
13027;BME280;6580;42.680;23.324;2022-11-21T11:49:31;94370.78;;;8.67;100.00
13027;BME280;6580;42.680;23.324;2022-11-21T11:52:25;94370.41;;;8.78;100.00
13027;BME280;6580;42.680;23.324;2022-11-21T11:54:59;94376.53;;;8.94;100.00
13027;BME280;6580;42.680;23.324;2022-11-21T11:57:29;94371.41;;;8.85;100.00
13027;BME280;6580;42.680;23.324;2022-11-21T12:00:04;94374.06;;;8.77;100.00
13027;BME280;6580;42.680;23.324;2022-11-21T12:02:44;94378.91;;;8.81;100.00
13027;BME280;6580;42.680;23.324;2022-11-21T12:05:18;94373.09;;;8.70;100.00
13027;BME280;6580;42.680;23.324;2022-11-21T12:07:50;94377.03;;;8.98;100.00
13027;BME280;6580;42.680;23.324;2022-11-21T12:10:23;94369.97;;;9.28;100.00
13027;BME280;6580;42.680;23.324;2022-11-21T12:13:01;94362.31;;;9.33;100.00
13027;BME280;6580;42.680;23.324;2022-11-21T12:15:35;94370.47;;;9.32;100.00
13027;BME280;6580;42.680;23.324;2022-11-21T12:18:25;94379.50;;;9.15;100.00
13027;BME280;6580;42.680;23.324;2022-11-21T12:20:58;94378.03;;;9.05;100.00
13027;BME280;6580;42.680;23.324;2022-11-21T12:23:35;94388.34;;;8.68;100.00
13027;BME280;6580;42.680;23.324;2022-11-21T12:26:16;94390.69;;;8.71;100.00
13027;BME280;6580;42.680;23.324;2022-11-21T12:28:55;94370.09;;;8.65;100.00
13027;BME280;6580;42.680;23.324;2022-11-21T12:31:36;94381.19;;;8.84;100.00
13027;BME280;6580;42.680;23.324;2022-11-21T12:34:14;94379.66;;;9.13;100.00
13027;BME280;6580;42.680;23.324;2022-11-21T12:36:46;94383.78;;;9.24;100.00
13027;BME280;6580;42.680;23.324;2022-11-21T12:39:44;94394.25;;;9.25;100.00
13027;BME280;6580;42.680;23.324;2022-11-21T12:42:26;94393.66;;;8.92;100.00
13027;BME280;6580;42.680;23.324;2022-11-21T12:45:25;94407.56;;;8.94;100.00
13027;BME280;6580;42.680;23.324;2022-11-21T12:48:14;94406.56;;;9.03;100.00
13027;BME280;6580;42.680;23.324;2022-11-21T12:51:14;94402.28;;;8.62;100.00
13027;BME280;6580;42.680;23.324;2022-11-21T12:54:12;94396.81;;;8.55;100.00
13027;BME280;6580;42.680;23.324;2022-11-21T12:57:04;94379.53;;;8.83;100.00
13027;BME280;6580;42.680;23.324;2022-11-21T12:59:41;94400.25;;;8.96;100.00
13027;BME280;6580;42.680;23.324;2022-11-21T13:02:27;94400.25;;;9.04;100.00
13027;BME280;6580;42.680;23.324;2022-11-21T13:04:58;94410.88;;;8.96;100.00
13027;BME280;6580;42.680;23.324;2022-11-21T13:07:29;94403.28;;;8.85;100.00
13027;BME280;6580;42.680;23.324;2022-11-21T13:10:00;94405.75;;;8.94;100.00
13027;BME280;6580;42.680;23.324;2022-11-21T13:12:33;94403.28;;;8.85;100.00
13027;BME280;6580;42.680;23.324;2022-11-21T13:15:14;94410.88;;;9.04;100.00